Gulbeniz A — TCZK8 — position and weather

sailwx.info

Track history (hours):
 
Tides and Currents Weather Stations Pressure Air Temp Water Temp Dewpoint Dewpoint Depression Visibility Wind Speed Wind Dir Waves Ship Positions

Gulbeniz A

Last reported at 2015-Jul-16 03:33 UTC. Time now 2015-Aug-03 10:37 UTC.
Position N 26°55' W 014°50'.
Warning: this ship's position is 18 days out of date.

Length 210 m; draft 10.8 m.

Type: Ship (hazmat cat A). MMSI: 271042493.

Date/timePositionNaut miles runAvg speedWind from/ knotsBaromVisibWave heightAir tempDewpointWater temp
2015-Jul-16 03:33N 26°55' W 014°50'1312.5
2015-Jul-16 02:33N 27°05' W 014°42'1313.3
2015-Jul-16 01:33N 27°16' W 014°33'1312.9
2015-Jul-16 00:34N 27°26' W 014°25'1313.0
2015-Jul-15 23:33N 27°37' W 014°16'1413.6
2015-Jul-15 22:33N 27°48' W 014°07'1313.0
2015-Jul-15 21:33N 27°59' W 013°59'1313.2
2015-Jul-15 20:34N 28°10' W 013°51'1413.6
2015-Jul-15 19:33N 28°22' W 013°43'1513.6
2015-Jul-15 18:27N 28°35' W 013°35'1314.2
2015-Jul-15 17:33N 28°46' W 013°27'1414.1
2015-Jul-15 16:34N 28°57' W 013°18'2813.8
2015-Jul-15 14:33N 29°19' W 012°59'1313.4
2015-Jul-15 13:33N 29°29' W 012°49'1313.3
2015-Jul-15 12:34N 29°40' W 012°40'1313.2
2015-Jul-15 11:33N 29°51' W 012°31'1413.5
2015-Jul-15 10:30N 30°02' W 012°21'1313.7
2015-Jul-15 09:32N 30°12' W 012°11'1414.7
2015-Jul-15 08:33N 30°24' W 012°01'1414.5
2015-Jul-15 07:33N 30°35' W 011°51'1414.2
2015-Jul-15 06:33N 30°46' W 011°41'1414.3
2015-Jul-15 05:33N 30°58' W 011°30'1414.2
2015-Jul-15 04:34N 31°09' W 011°20'1514.5
2015-Jul-15 03:33N 31°21' W 011°10'1414.3
2015-Jul-15 02:33N 31°32' W 010°60'1414.0
2015-Jul-15 01:32N 31°43' W 010°49'1414.7
2015-Jul-15 00:33N 31°54' W 010°39'1514.6
2015-Jul-14 23:33N 32°06' W 010°29'1514.7
2015-Jul-14 22:33N 32°17' W 010°18'1414.1
2015-Jul-14 21:33N 32°28' W 010°08'1414.4
2015-Jul-14 20:34N 32°40' W 009°57'1514.6
2015-Jul-14 19:33N 32°52' W 009°47'1514.7
2015-Jul-14 18:33N 33°03' W 009°36'1514.7
2015-Jul-14 17:33N 33°15' W 009°25'1514.6
2015-Jul-14 16:33N 33°25' W 009°13'1514.6
2015-Jul-14 15:33N 33°35' W 009°00'1514.7
2015-Jul-14 14:34N 33°45' W 008°48'1514.5
2015-Jul-14 13:34N 33°56' W 008°35'1414.5
2015-Jul-14 12:33N 34°05' W 008°22'1414.3
2015-Jul-14 11:33N 34°15' W 008°09'1414.1
2015-Jul-14 10:34N 34°25' W 007°57'1514.1
2015-Jul-14 09:29N 34°35' W 007°44'1314.1
2015-Jul-14 08:33N 34°44' W 007°32'1414.1
2015-Jul-14 07:34N 34°54' W 007°20'1413.9
2015-Jul-14 06:33N 35°04' W 007°07'1413.9
2015-Jul-14 05:34N 35°13' W 006°55'1414.1
2015-Jul-14 04:33N 35°23' W 006°43'1413.6
2015-Jul-14 03:33N 35°32' W 006°31'1413.8
2015-Jul-14 02:31N 35°42' W 006°17'1713.6
2015-Jul-14 01:18N 35°55' W 006°05'2613.4
2015-Jul-13 23:23N 35°57' W 005°33'8 0.8
2015-Jul-13 13:24N 36°02' W 005°24'4 4.8
2015-Jul-13 12:33N 36°06' W 005°25'0 0.0
2015-Jul-13 11:33N 36°06' W 005°25'0 0.1
2015-Jul-13 10:30N 36°06' W 005°25'0 0.1
2015-Jul-13 09:33N 36°06' W 005°25'0 0.0
2015-Jul-13 08:33N 36°06' W 005°25'0 0.0
2015-Jul-13 07:30N 36°06' W 005°25'0 0.1
2015-Jul-13 06:33N 36°06' W 005°25'2 2.1
2015-Jul-13 05:32N 36°08' W 005°25'0 0.0
2015-Jul-13 04:33N 36°08' W 005°25'0 0.0
2015-Jul-13 03:34N 36°08' W 005°25'0 0.0
2015-Jul-13 02:34N 36°08' W 005°25'0 0.0
2015-Jul-13 01:33N 36°08' W 005°25'0 0.0
2015-Jul-13 00:33N 36°08' W 005°25'0 0.0
2015-Jul-12 23:33N 36°08' W 005°25'0 0.0
2015-Jul-12 22:33N 36°08' W 005°25'0 0.0
2015-Jul-12 21:34N 36°08' W 005°25'1 0.9
2015-Jul-12 20:34N 36°08' W 005°26'0 0.1
2015-Jul-12 19:33N 36°08' W 005°26'0 0.0
2015-Jul-12 18:34N 36°08' W 005°26'0 0.0
2015-Jul-12 17:31N 36°08' W 005°26'0 0.0
2015-Jul-12 16:30N 36°08' W 005°26'0 0.0
2015-Jul-12 14:34N 36°08' W 005°26'0 0.4
2015-Jul-12 13:33N 36°09' W 005°26'8 8.3
2015-Jul-12 12:33N 36°05' W 005°17'10 9.0
2015-Jul-12 11:24N 36°12' W 005°07'5 5.4
2015-Jul-12 10:29N 36°09' W 005°12'6 6.9
2015-Jul-12 09:34N 36°04' W 005°16'11616.4
2015-Jul-12 02:31N 36°21' W 002°55'1616.1
2015-Jul-12 01:34N 36°23' W 002°35'1615.7
2015-Jul-12 00:33N 36°25' W 002°16'1715.4
2015-Jul-11 23:26N 36°35' W 001°59'1415.7
2015-Jul-11 22:32N 36°44' W 001°45'1615.8
2015-Jul-11 21:31N 36°55' W 001°30'1615.7
2015-Jul-11 20:32N 37°05' W 001°15'1616.1
2015-Jul-11 19:33N 37°15' W 001°01'1616.1
2015-Jul-11 18:33N 37°26' W 000°46'1716.5
2015-Jul-11 17:33N 37°38' W 000°31'1616.4
2015-Jul-11 16:34N 37°52' W 000°20'1716.5
2015-Jul-11 15:33N 38°05' W 000°08'1716.4
2015-Jul-11 14:32N 38°19' E 000°03'3315.8
2015-Jul-11 12:29N 38°47' E 000°25'6615.8
2015-Jul-11 08:17N 39°50' E 000°51'1216.1
2015-Jul-11 07:33N 40°02' E 000°55'1615.9
2015-Jul-11 06:33N 40°17' E 000°59'1615.9
2015-Jul-11 05:31N 40°33' E 001°04'1715.9
2015-Jul-11 04:27N 40°50' E 001°09'1415.6
2015-Jul-11 03:32N 41°04' E 001°12'2 0.5
2015-Jul-11 00:13N 41°05' E 001°13'0 0.0
2015-Jul-10 23:31N 41°05' E 001°13'0 0.0
2015-Jul-10 18:25N 41°05' E 001°13'0 0.0
2015-Jul-10 14:25N 41°05' E 001°13'1 0.5
2015-Jul-10 12:33N 41°05' E 001°13'10 9.7
2015-Jul-10 11:33N 40°55' E 001°09'1512.8
2015-Jul-10 10:23N 40°41' E 001°02'1315.9
2015-Jul-10 09:33N 40°29' E 000°54'1716.7
2015-Jul-10 08:33N 40°16' E 000°41'1716.6
2015-Jul-10 07:33N 40°03' E 000°27'1716.6
2015-Jul-10 06:33N 39°51' E 000°13'1616.4
2015-Jul-10 05:33N 39°39' W 000°01'1815.6
2015-Jul-10 04:24N 39°25' W 000°17'3 3.1
2015-Jul-10 03:32N 39°27' W 000°19'0 0.0
2015-Jul-10 02:29N 39°27' W 000°19'0 0.0
2015-Jul-10 01:29N 39°27' W 000°19'0 0.0
2015-Jul-10 00:29N 39°27' W 000°19'0 0.0
2015-Jul-09 23:32N 39°27' W 000°19'0 0.0
2015-Jul-09 22:32N 39°27' W 000°19'0 0.0
2015-Jul-09 21:32N 39°27' W 000°19'0 0.0
2015-Jul-09 20:29N 39°27' W 000°19'0 0.0
2015-Jul-09 19:29N 39°27' W 000°19'0 0.0
2015-Jul-09 18:29N 39°27' W 000°19'0 0.0
2015-Jul-09 17:33N 39°27' W 000°19'0 0.0
2015-Jul-09 16:33N 39°27' W 000°19'0 0.0
2015-Jul-09 15:33N 39°27' W 000°19'0 0.0
2015-Jul-09 14:33N 39°27' W 000°19'0 0.0
2015-Jul-09 13:33N 39°27' W 000°19'0 0.0
2015-Jul-09 12:33N 39°27' W 000°19'0 0.0
2015-Jul-09 11:33N 39°27' W 000°19'0 0.0
2015-Jul-09 10:33N 39°27' W 000°19'0 0.0
2015-Jul-09 09:33N 39°27' W 000°19'0 0.0
2015-Jul-09 08:33N 39°27' W 000°19'0 0.0
2015-Jul-09 07:33N 39°27' W 000°19'0 0.0
2015-Jul-09 06:33N 39°27' W 000°19'0 0.0
2015-Jul-09 05:33N 39°27' W 000°19'0 0.0
2015-Jul-09 04:33N 39°27' W 000°19'0 0.0
2015-Jul-09 03:33N 39°27' W 000°19'0 0.0
2015-Jul-09 02:33N 39°27' W 000°19'0 0.0
2015-Jul-09 01:33N 39°27' W 000°19'0 0.0
2015-Jul-09 00:33N 39°27' W 000°19'0 0.0
2015-Jul-08 23:33N 39°27' W 000°19'0 0.0
2015-Jul-08 22:33N 39°27' W 000°19'0 0.0
2015-Jul-08 21:33N 39°27' W 000°19'0 0.0
2015-Jul-08 20:09N 39°27' W 000°19'0 0.0
2015-Jul-08 19:33N 39°27' W 000°19'0 0.0
2015-Jul-08 18:33N 39°27' W 000°19'0 0.0
2015-Jul-08 17:33N 39°27' W 000°19'0 0.0
2015-Jul-08 16:31N 39°27' W 000°19'0 0.0
2015-Jul-08 14:29N 39°27' W 000°19'0 0.0
2015-Jul-08 13:33N 39°27' W 000°19'0 0.0
2015-Jul-08 12:33N 39°27' W 000°19'0 0.0
2015-Jul-08 11:32N 39°27' W 000°19'0 0.0
2015-Jul-08 10:23N 39°27' W 000°19'0 0.0
2015-Jul-08 09:33N 39°27' W 000°19'0 0.0
2015-Jul-08 08:33N 39°27' W 000°19'0 0.0
2015-Jul-08 07:33N 39°27' W 000°19'0 0.0
2015-Jul-08 06:33N 39°27' W 000°19'0 0.0
2015-Jul-08 05:33N 39°27' W 000°19'0 0.0
2015-Jul-08 04:33N 39°27' W 000°19'7 6.9
2015-Jul-08 03:33N 39°22' W 000°13'1412.6
2015-Jul-08 02:26N 39°11' W 000°03'1112.0
2015-Jul-08 01:32N 39°03' E 000°06'1212.2
2015-Jul-08 00:33N 38°54' E 000°16'1212.4
2015-Jul-07 23:33N 38°44' E 000°26'1212.0
2015-Jul-07 22:33N 38°33' E 000°20'1212.5
2015-Jul-07 21:33N 38°22' E 000°11'1212.4
2015-Jul-07 20:33N 38°12' E 000°02'1212.6
2015-Jul-07 19:33N 38°02' W 000°07'1212.4
2015-Jul-07 18:33N 37°52' W 000°16'1312.5
2015-Jul-07 17:33N 37°41' W 000°24'1212.3
2015-Jul-07 16:33N 37°31' W 000°34'1212.2
2015-Jul-07 15:33N 37°23' W 000°45'1212.2
2015-Jul-07 14:33N 37°15' W 000°57'1212.2
2015-Jul-07 13:33N 37°07' W 001°08'1312.9
2015-Jul-07 12:33N 36°59' W 001°21'3812.6
2015-Jul-07 09:33N 36°33' W 001°55'1312.3
2015-Jul-07 08:31N 36°25' W 002°07'1211.9
2015-Jul-07 07:32N 36°20' W 002°21'1212.5
2015-Jul-07 06:32N 36°19' W 002°36'1212.5
2015-Jul-07 05:33N 36°18' W 002°51'1312.7
2015-Jul-07 04:33N 36°16' W 003°07'1212.2
2015-Jul-07 03:33N 36°14' W 003°22'16812.0
2015-Jul-06 13:33N 35°24' W 006°40'1512.5
2015-Jul-06 12:19N 35°14' W 006°54'6513.1
2015-Jul-06 07:19N 34°29' W 007°52'4114.5
2015-Jul-06 04:30N 34°01' W 008°28'  
Track history (hours):
 
Tides and Currents Weather Stations Pressure Air Temp Water Temp Dewpoint Dewpoint Depression Visibility Wind Speed Wind Dir Waves Ship Positions

Gulbeniz A

Last reported at 2015-Jul-16 03:33 UTC. Time now 2015-Aug-03 10:37 UTC.
Position N 26°55' W 014°50'.
Warning: this ship's position is 18 days out of date.

Length 210 m; draft 10.8 m.

Type: Ship (hazmat cat A). MMSI: 271042493.

Date/timePositionNaut miles runAvg speedWind from/ knotsBaromVisibWave heightAir tempDewpointWater temp
2015-Jul-16 03:33N 26°55' W 014°50'1312.5
2015-Jul-16 02:33N 27°05' W 014°42'1313.3
2015-Jul-16 01:33N 27°16' W 014°33'1312.9
2015-Jul-16 00:34N 27°26' W 014°25'1313.0
2015-Jul-15 23:33N 27°37' W 014°16'1413.6
2015-Jul-15 22:33N 27°48' W 014°07'1313.0
2015-Jul-15 21:33N 27°59' W 013°59'1313.2
2015-Jul-15 20:34N 28°10' W 013°51'1413.6
2015-Jul-15 19:33N 28°22' W 013°43'1513.6
2015-Jul-15 18:27N 28°35' W 013°35'1314.2
2015-Jul-15 17:33N 28°46' W 013°27'1414.1
2015-Jul-15 16:34N 28°57' W 013°18'2813.8
2015-Jul-15 14:33N 29°19' W 012°59'1313.4
2015-Jul-15 13:33N 29°29' W 012°49'1313.3
2015-Jul-15 12:34N 29°40' W 012°40'1313.2
2015-Jul-15 11:33N 29°51' W 012°31'1413.5
2015-Jul-15 10:30N 30°02' W 012°21'1313.7
2015-Jul-15 09:32N 30°12' W 012°11'1414.7
2015-Jul-15 08:33N 30°24' W 012°01'1414.5
2015-Jul-15 07:33N 30°35' W 011°51'1414.2
2015-Jul-15 06:33N 30°46' W 011°41'1414.3
2015-Jul-15 05:33N 30°58' W 011°30'1414.2
2015-Jul-15 04:34N 31°09' W 011°20'1514.5
2015-Jul-15 03:33N 31°21' W 011°10'1414.3
2015-Jul-15 02:33N 31°32' W 010°60'1414.0
2015-Jul-15 01:32N 31°43' W 010°49'1414.7
2015-Jul-15 00:33N 31°54' W 010°39'1514.6
2015-Jul-14 23:33N 32°06' W 010°29'1514.7
2015-Jul-14 22:33N 32°17' W 010°18'1414.1
2015-Jul-14 21:33N 32°28' W 010°08'1414.4
2015-Jul-14 20:34N 32°40' W 009°57'1514.6
2015-Jul-14 19:33N 32°52' W 009°47'1514.7
2015-Jul-14 18:33N 33°03' W 009°36'1514.7
2015-Jul-14 17:33N 33°15' W 009°25'1514.6
2015-Jul-14 16:33N 33°25' W 009°13'1514.6
2015-Jul-14 15:33N 33°35' W 009°00'1514.7
2015-Jul-14 14:34N 33°45' W 008°48'1514.5
2015-Jul-14 13:34N 33°56' W 008°35'1414.5
2015-Jul-14 12:33N 34°05' W 008°22'1414.3
2015-Jul-14 11:33N 34°15' W 008°09'1414.1
2015-Jul-14 10:34N 34°25' W 007°57'1514.1
2015-Jul-14 09:29N 34°35' W 007°44'1314.1
2015-Jul-14 08:33N 34°44' W 007°32'1414.1
2015-Jul-14 07:34N 34°54' W 007°20'1413.9
2015-Jul-14 06:33N 35°04' W 007°07'1413.9
2015-Jul-14 05:34N 35°13' W 006°55'1414.1
2015-Jul-14 04:33N 35°23' W 006°43'1413.6
2015-Jul-14 03:33N 35°32' W 006°31'1413.8
2015-Jul-14 02:31N 35°42' W 006°17'1713.6
2015-Jul-14 01:18N 35°55' W 006°05'2613.4
2015-Jul-13 23:23N 35°57' W 005°33'8 0.8
2015-Jul-13 13:24N 36°02' W 005°24'4 4.8
2015-Jul-13 12:33N 36°06' W 005°25'0 0.0
2015-Jul-13 11:33N 36°06' W 005°25'0 0.1
2015-Jul-13 10:30N 36°06' W 005°25'0 0.1
2015-Jul-13 09:33N 36°06' W 005°25'0 0.0
2015-Jul-13 08:33N 36°06' W 005°25'0 0.0
2015-Jul-13 07:30N 36°06' W 005°25'0 0.1
2015-Jul-13 06:33N 36°06' W 005°25'2 2.1
2015-Jul-13 05:32N 36°08' W 005°25'0 0.0
2015-Jul-13 04:33N 36°08' W 005°25'0 0.0
2015-Jul-13 03:34N 36°08' W 005°25'0 0.0
2015-Jul-13 02:34N 36°08' W 005°25'0 0.0
2015-Jul-13 01:33N 36°08' W 005°25'0 0.0
2015-Jul-13 00:33N 36°08' W 005°25'0 0.0
2015-Jul-12 23:33N 36°08' W 005°25'0 0.0
2015-Jul-12 22:33N 36°08' W 005°25'0 0.0
2015-Jul-12 21:34N 36°08' W 005°25'1 0.9
2015-Jul-12 20:34N 36°08' W 005°26'0 0.1
2015-Jul-12 19:33N 36°08' W 005°26'0 0.0
2015-Jul-12 18:34N 36°08' W 005°26'0 0.0
2015-Jul-12 17:31N 36°08' W 005°26'0 0.0
2015-Jul-12 16:30N 36°08' W 005°26'0 0.0
2015-Jul-12 14:34N 36°08' W 005°26'0 0.4
2015-Jul-12 13:33N 36°09' W 005°26'8 8.3
2015-Jul-12 12:33N 36°05' W 005°17'10 9.0
2015-Jul-12 11:24N 36°12' W 005°07'5 5.4
2015-Jul-12 10:29N 36°09' W 005°12'6 6.9
2015-Jul-12 09:34N 36°04' W 005°16'11616.4
2015-Jul-12 02:31N 36°21' W 002°55'1616.1
2015-Jul-12 01:34N 36°23' W 002°35'1615.7
2015-Jul-12 00:33N 36°25' W 002°16'1715.4
2015-Jul-11 23:26N 36°35' W 001°59'1415.7
2015-Jul-11 22:32N 36°44' W 001°45'1615.8
2015-Jul-11 21:31N 36°55' W 001°30'1615.7
2015-Jul-11 20:32N 37°05' W 001°15'1616.1
2015-Jul-11 19:33N 37°15' W 001°01'1616.1
2015-Jul-11 18:33N 37°26' W 000°46'1716.5
2015-Jul-11 17:33N 37°38' W 000°31'1616.4
2015-Jul-11 16:34N 37°52' W 000°20'1716.5
2015-Jul-11 15:33N 38°05' W 000°08'1716.4
2015-Jul-11 14:32N 38°19' E 000°03'3315.8
2015-Jul-11 12:29N 38°47' E 000°25'6615.8
2015-Jul-11 08:17N 39°50' E 000°51'1216.1
2015-Jul-11 07:33N 40°02' E 000°55'1615.9
2015-Jul-11 06:33N 40°17' E 000°59'1615.9
2015-Jul-11 05:31N 40°33' E 001°04'1715.9
2015-Jul-11 04:27N 40°50' E 001°09'1415.6
2015-Jul-11 03:32N 41°04' E 001°12'2 0.5
2015-Jul-11 00:13N 41°05' E 001°13'0 0.0
2015-Jul-10 23:31N 41°05' E 001°13'0 0.0
2015-Jul-10 18:25N 41°05' E 001°13'0 0.0
2015-Jul-10 14:25N 41°05' E 001°13'1 0.5
2015-Jul-10 12:33N 41°05' E 001°13'10 9.7
2015-Jul-10 11:33N 40°55' E 001°09'1512.8
2015-Jul-10 10:23N 40°41' E 001°02'1315.9
2015-Jul-10 09:33N 40°29' E 000°54'1716.7
2015-Jul-10 08:33N 40°16' E 000°41'1716.6
2015-Jul-10 07:33N 40°03' E 000°27'1716.6
2015-Jul-10 06:33N 39°51' E 000°13'1616.4
2015-Jul-10 05:33N 39°39' W 000°01'1815.6
2015-Jul-10 04:24N 39°25' W 000°17'3 3.1
2015-Jul-10 03:32N 39°27' W 000°19'0 0.0
2015-Jul-10 02:29N 39°27' W 000°19'0 0.0
2015-Jul-10 01:29N 39°27' W 000°19'0 0.0
2015-Jul-10 00:29N 39°27' W 000°19'0 0.0
2015-Jul-09 23:32N 39°27' W 000°19'0 0.0
2015-Jul-09 22:32N 39°27' W 000°19'0 0.0
2015-Jul-09 21:32N 39°27' W 000°19'0 0.0
2015-Jul-09 20:29N 39°27' W 000°19'0 0.0
2015-Jul-09 19:29N 39°27' W 000°19'0 0.0
2015-Jul-09 18:29N 39°27' W 000°19'0 0.0
2015-Jul-09 17:33N 39°27' W 000°19'0 0.0
2015-Jul-09 16:33N 39°27' W 000°19'0 0.0
2015-Jul-09 15:33N 39°27' W 000°19'0 0.0
2015-Jul-09 14:33N 39°27' W 000°19'0 0.0
2015-Jul-09 13:33N 39°27' W 000°19'0 0.0
2015-Jul-09 12:33N 39°27' W 000°19'0 0.0
2015-Jul-09 11:33N 39°27' W 000°19'0 0.0
2015-Jul-09 10:33N 39°27' W 000°19'0 0.0
2015-Jul-09 09:33N 39°27' W 000°19'0 0.0
2015-Jul-09 08:33N 39°27' W 000°19'0 0.0
2015-Jul-09 07:33N 39°27' W 000°19'0 0.0
2015-Jul-09 06:33N 39°27' W 000°19'0 0.0
2015-Jul-09 05:33N 39°27' W 000°19'0 0.0
2015-Jul-09 04:33N 39°27' W 000°19'0 0.0
2015-Jul-09 03:33N 39°27' W 000°19'0 0.0
2015-Jul-09 02:33N 39°27' W 000°19'0 0.0
2015-Jul-09 01:33N 39°27' W 000°19'0 0.0
2015-Jul-09 00:33N 39°27' W 000°19'0 0.0
2015-Jul-08 23:33N 39°27' W 000°19'0 0.0
2015-Jul-08 22:33N 39°27' W 000°19'0 0.0
2015-Jul-08 21:33N 39°27' W 000°19'0 0.0
2015-Jul-08 20:09N 39°27' W 000°19'0 0.0
2015-Jul-08 19:33N 39°27' W 000°19'0 0.0
2015-Jul-08 18:33N 39°27' W 000°19'0 0.0
2015-Jul-08 17:33N 39°27' W 000°19'0 0.0
2015-Jul-08 16:31N 39°27' W 000°19'0 0.0
2015-Jul-08 14:29N 39°27' W 000°19'0 0.0
2015-Jul-08 13:33N 39°27' W 000°19'0 0.0
2015-Jul-08 12:33N 39°27' W 000°19'0 0.0
2015-Jul-08 11:32N 39°27' W 000°19'0 0.0
2015-Jul-08 10:23N 39°27' W 000°19'0 0.0
2015-Jul-08 09:33N 39°27' W 000°19'0 0.0
2015-Jul-08 08:33N 39°27' W 000°19'0 0.0
2015-Jul-08 07:33N 39°27' W 000°19'0 0.0
2015-Jul-08 06:33N 39°27' W 000°19'0 0.0
2015-Jul-08 05:33N 39°27' W 000°19'0 0.0
2015-Jul-08 04:33N 39°27' W 000°19'7 6.9
2015-Jul-08 03:33N 39°22' W 000°13'1412.6
2015-Jul-08 02:26N 39°11' W 000°03'1112.0
2015-Jul-08 01:32N 39°03' E 000°06'1212.2
2015-Jul-08 00:33N 38°54' E 000°16'1212.4
2015-Jul-07 23:33N 38°44' E 000°26'1212.0
2015-Jul-07 22:33N 38°33' E 000°20'1212.5
2015-Jul-07 21:33N 38°22' E 000°11'1212.4
2015-Jul-07 20:33N 38°12' E 000°02'1212.6
2015-Jul-07 19:33N 38°02' W 000°07'1212.4
2015-Jul-07 18:33N 37°52' W 000°16'1312.5
2015-Jul-07 17:33N 37°41' W 000°24'1212.3
2015-Jul-07 16:33N 37°31' W 000°34'1212.2
2015-Jul-07 15:33N 37°23' W 000°45'1212.2
2015-Jul-07 14:33N 37°15' W 000°57'1212.2
2015-Jul-07 13:33N 37°07' W 001°08'1312.9
2015-Jul-07 12:33N 36°59' W 001°21'3812.6
2015-Jul-07 09:33N 36°33' W 001°55'1312.3
2015-Jul-07 08:31N 36°25' W 002°07'1211.9
2015-Jul-07 07:32N 36°20' W 002°21'1212.5
2015-Jul-07 06:32N 36°19' W 002°36'1212.5
2015-Jul-07 05:33N 36°18' W 002°51'1312.7
2015-Jul-07 04:33N 36°16' W 003°07'1212.2
2015-Jul-07 03:33N 36°14' W 003°22'16812.0
2015-Jul-06 13:33N 35°24' W 006°40'1512.5
2015-Jul-06 12:19N 35°14' W 006°54'6513.1
2015-Jul-06 07:19N 34°29' W 007°52'4114.5
2015-Jul-06 04:30N 34°01' W 008°28'  

Dump ship's entire track history